Data for 12/04/2013

Time Sea-Level Adjusted Pressure Absolute Pressure Temperature Relative Humidity Dew Point   
(mb) (inHg) (mb) (inHg) (C) (F) (%) (C) (F)
00:05 1018 30.06 847 25.01 -18.7 -1.6 82 -21 -5.8
00:10 1018 30.06 847 25.01 -18.7 -1.6 82 -21 -5.9
00:15 1018 30.06 847 25.01 -18.7 -1.7 82 -21 -5.8
00:20 1018 30.06 847 25.01 -18.7 -1.7 82 -21.1 -5.9
00:25 1018 30.06 847 25.01 -18.8 -1.8 82 -21.1 -6
00:30 1018 30.06 847 25.01 -18.8 -1.9 83 -21.1 -6
00:35 1018 30.06 847 25.01 -18.9 -1.9 82 -21.2 -6.2
00:40 1018 30.06 847 25.01 -18.9 -2 82 -21.2 -6.2
00:45 1018 30.06 847 25.01 -18.9 -2.1 82 -21.2 -6.2
00:50 1018 30.06 847 25.01 -19 -2.1 82 -21.3 -6.3
00:55 1018 30.06 847 25.01 -19 -2.2 82 -21.3 -6.4
01:00 1018 30.06 847 25.01 -19 -2.2 82 -21.3 -6.3
01:05 1018 30.06 847 25.01 -19 -2.2 83 -21.2 -6.2
01:10 1018 30.06 847 25.01 -19 -2.2 82 -21.3 -6.4
01:15 1018 30.06 847 25.01 -19 -2.2 82 -21.3 -6.4
01:20 1018 30.06 847 25.01 -19 -2.3 82 -21.4 -6.5
01:25 1018 30.06 847 25.01 -19.1 -2.4 82 -21.4 -6.5
01:30 1018 30.06 847 25.01 -19.1 -2.4 82 -21.5 -6.7
01:35 1018 30.06 847 25.01 -19.2 -2.5 82 -21.5 -6.8
01:40 1018 30.06 847 25.01 -19.2 -2.5 82 -21.6 -6.8
01:45 1018 30.06 847 25.01 -19.2 -2.6 82 -21.7 -7
01:50 1018 30.06 847 25.01 -19.3 -2.7 82 -21.7 -7
01:55 1018 30.06 847 25.01 -19.3 -2.8 81 -21.8 -7.2
02:00 1018 30.06 847 25.01 -19.4 -2.9 81 -21.8 -7.3
02:05 1018 30.06 847 25.01 -19.4 -3 81 -21.9 -7.4
02:10 1018 30.06 847 25.01 -19.5 -3.1 81 -21.9 -7.4
02:15 1018 30.06 847 25.01 -19.5 -3.1 81 -22 -7.5
02:20 1018 30.06 847 25.01 -19.5 -3.2 81 -22 -7.5
02:25 1018 30.06 847 25.01 -19.6 -3.2 81 -22.1 -7.7
02:30 1018 30.06 847 25.01 -19.7 -3.4 81 -22.2 -7.9
02:35 1018 30.06 847 25.01 -19.7 -3.5 82 -22.1 -7.8
02:40 1018 30.06 847 25.01 -19.7 -3.5 81 -22.2 -8
02:45 1018 30.06 847 25.01 -19.8 -3.6 81 -22.3 -8.1
02:50 1018 30.06 847 25.01 -19.9 -3.9 81 -22.4 -8.4
02:55 1018 30.06 847 25.01 -20 -4 81 -22.5 -8.5
03:00 1018 30.06 847 25.01 -20.1 -4.2 80 -22.7 -8.8
03:05 1018 30.06 847 25.01 -20.3 -4.5 80 -22.8 -9.1
03:10 1018 30.06 847 25.01 -20.4 -4.7 80 -23 -9.4
03:15 1018 30.06 847 25.01 -20.6 -5.1 80 -23.1 -9.7
03:20 1018 30.06 847 25.01 -20.6 -5.1 81 -23 -9.5
03:25 1018 30.06 847 25.01 -20.6 -5 81 -23 -9.4
03:30 1018 30.06 847 25.01 -20.5 -4.9 81 -22.9 -9.3
03:35 1018 30.06 847 25.01 -20.5 -4.8 81 -22.9 -9.2
03:40 1018 30.06 847 25.01 -20.4 -4.7 81 -22.8 -9.1
03:45 1018 30.06 847 25.01 -20.4 -4.8 81 -22.9 -9.3
03:50 1018 30.06 847 25.01 -20.5 -4.9 80 -23.1 -9.5
03:55 1018 30.06 847 25.01 -20.6 -5 80 -23.2 -9.7
04:00 1018 30.06 847 25.01 -20.7 -5.2 80 -23.3 -9.9
04:05 1018 30.06 847 25.01 -20.7 -5.3 80 -23.3 -10
04:10 1018 30.06 847 25.01 -20.7 -5.3 81 -23.2 -9.8
04:15 1018 30.06 847 25.01 -20.8 -5.4 80 -23.4 -10.2
04:20 1018 30.06 847 25.01 -21 -5.7 79 -23.8 -10.8
04:25 1018 30.06 847 25.01 -21.2 -6.1 79 -23.9 -11
04:30 1018 30.06 847 25.01 -21.1 -5.9 80 -23.6 -10.5
04:35 1018 30.06 847 25.01 -21 -5.7 80 -23.5 -10.4
04:40 1018 30.06 847 25.01 -20.9 -5.7 80 -23.6 -10.4
04:45 1018 30.06 847 25.01 -21 -5.7 80 -23.5 -10.4
04:50 1018 30.06 847 25.01 -21 -5.8 80 -23.6 -10.6
04:55 1018 30.06 847 25.01 -21 -5.8 80 -23.6 -10.5
05:00 1018 30.06 847 25.01 -21 -5.8 80 -23.7 -10.6
05:05 1018 30.06 847 25.01 -21 -5.8 80 -23.6 -10.4
05:10 1018 30.06 847 25.01 -21 -5.8 80 -23.6 -10.5
05:15 1018 30.06 847 25.01 -21 -5.9 80 -23.7 -10.6
05:20 1018 30.06 847 25.01 -21.1 -5.9 80 -23.6 -10.6
05:25 1018 30.06 847 25.01 -21 -5.8 80 -23.7 -10.6
05:30 1018 30.06 847 25.01 -21 -5.7 79 -23.7 -10.7
05:35 1018 30.06 847 25.01 -21.1 -6 78 -23.9 -11.1
05:40 1018 30.06 847 25.01 -21.2 -6.2 79 -24 -11.3
05:45 1018 30.06 847 25.01 -21.4 -6.5 79 -24.2 -11.5
05:50 1018 30.06 847 25.01 -21.4 -6.6 79 -24.2 -11.6
05:55 1018 30.06 847 25.01 -21.5 -6.7 79 -24.3 -11.7
06:00 1018 30.06 847 25.01 -21.6 -6.8 79 -24.3 -11.8
06:05 1018 30.06 847 25.01 -21.6 -7 79 -24.4 -11.9
06:10 1018 30.06 847 25.01 -21.6 -6.9 79 -24.4 -11.9
06:15 1018 30.06 847 25.01 -21.6 -6.8 80 -24.1 -11.4
06:20 1018 30.06 847 25.01 -21.5 -6.7 80 -24.1 -11.4
06:25 1018 30.06 847 25.01 -21.5 -6.7 80 -24.1 -11.5
06:30 1018 30.06 847 25.01 -21.6 -6.8 80 -24.2 -11.5
06:35 1018 30.06 847 25.01 -21.6 -6.8 80 -24.2 -11.5
06:40 1018 30.06 847 25.01 -21.6 -6.8 80 -24.1 -11.4
06:45 1018 30.06 847 25.01 -21.5 -6.7 80 -24 -11.3
06:50 1018 30.06 847 25.01 -21.4 -6.6 80 -24 -11.1
06:55 1018 30.06 847 25.01 -21.4 -6.5 81 -23.9 -10.9
07:00 1018 30.06 848 25.04 -21.3 -6.4 80 -23.9 -11
07:05 1018 30.06 847 25.01 -21.5 -6.6 80 -24.1 -11.4
07:10 1018 30.06 847 25.01 -21.6 -6.9 80 -24.2 -11.6
07:15 1018 30.06 847 25.01 -21.6 -7 80 -24.2 -11.6
07:20 1018 30.06 848 25.04 -21.7 -7.1 80 -24.3 -11.8
07:25 1018 30.06 848 25.04 -21.8 -7.3 80 -24.4 -12
07:30 1018 30.06 848 25.04 -21.8 -7.2 81 -24.2 -11.6
07:35 1019 30.09 848 25.04 -21.6 -6.9 81 -24.1 -11.4
07:40 1019 30.09 848 25.04 -21.6 -6.8 80 -24.1 -11.4
07:45 1019 30.09 848 25.04 -21.6 -6.9 81 -24.1 -11.4
07:50 1019 30.09 848 25.04 -21.5 -6.7 81 -23.9 -11
07:55 1019 30.09 848 25.04 -21.4 -6.4 80 -23.9 -11
08:00 1019 30.09 848 25.04 -21.4 -6.5 80 -23.9 -11.1
08:05 1019 30.09 848 25.04 -21.3 -6.4 80 -23.9 -10.9
08:10 1019 30.09 848 25.04 -21.2 -6.2 80 -23.8 -10.8
08:15 1019 30.09 848 25.04 -21.2 -6.2 80 -23.9 -10.9
08:20 1019 30.09 848 25.04 -21.3 -6.4 80 -24 -11.2
08:25 1019 30.09 848 25.04 -21.5 -6.6 79 -24.2 -11.6
08:30 1019 30.09 848 25.04 -21.7 -7 79 -24.3 -11.8
08:35 1019 30.09 848 25.04 -21.7 -7 79 -24.4 -11.8
08:40 1019 30.09 848 25.04 -21.7 -7 80 -24.3 -11.7
08:45 1019 30.09 848 25.04 -21.6 -6.9 80 -24.2 -11.5
08:50 1019 30.09 848 25.04 -21.6 -7 80 -24.2 -11.6
08:55 1019 30.09 848 25.04 -21.6 -6.8 80 -24.2 -11.6
09:00 1019 30.09 848 25.04 -21.5 -6.8 80 -24.1 -11.4
09:05 1019 30.09 848 25.04 -21.4 -6.6 80 -24.1 -11.4
09:10 1019 30.09 848 25.04 -21.4 -6.5 81 -23.9 -11.1
09:15 1019 30.09 848 25.04 -21.3 -6.4 80 -23.9 -11
09:20 1019 30.09 848 25.04 -21.3 -6.4 80 -23.9 -11
09:25 1019 30.09 848 25.04 -21.4 -6.4 79 -24.1 -11.4
09:30 1019 30.09 848 25.04 -21.4 -6.6 80 -24.1 -11.3
09:35 1019 30.09 848 25.04 -21.4 -6.5 80 -24 -11.2
09:40 1019 30.09 849 25.07 -21.3 -6.3 80 -23.8 -10.9
09:45 1019 30.09 849 25.07 -21.1 -6 80 -23.7 -10.6
09:50 1019 30.09 849 25.07 -20.9 -5.7 79 -23.6 -10.5
09:55 1019 30.09 849 25.07 -20.8 -5.5 80 -23.4 -10.1
10:00 1019 30.09 849 25.07 -20.5 -4.9 81 -23 -9.4
10:05 1019 30.09 849 25.07 -20.3 -4.5 80 -22.9 -9.2
10:10 1019 30.09 849 25.07 -20.2 -4.4 80 -22.8 -9
10:15 1019 30.09 849 25.07 -19.9 -3.8 80 -22.5 -8.5
10:20 1019 30.09 849 25.07 -19.8 -3.7 79 -22.6 -8.7
10:25 1020 30.12 849 25.07 -19.8 -3.6 79 -22.5 -8.6
10:30 1020 30.12 849 25.07 -19.7 -3.5 79 -22.5 -8.4
10:35 1020 30.12 849 25.07 -19.8 -3.6 79 -22.5 -8.5
10:40 1020 30.12 849 25.07 -19.5 -3.1 78 -22.4 -8.3
10:45 1020 30.12 849 25.07 -19.4 -2.8 79 -22.1 -7.7
10:50 1020 30.12 849 25.07 -19.1 -2.4 78 -22 -7.6
10:55 1020 30.12 849 25.07 -19.3 -2.7 78 -22.1 -7.8
11:00 1020 30.12 849 25.07 -19.3 -2.7 77 -22.3 -8.2
11:05 1020 30.12 849 25.07 -19.3 -2.8 76 -22.5 -8.5
11:10 1020 30.12 849 25.07 -19.3 -2.8 77 -22.4 -8.3
11:15 1020 30.12 849 25.07 -19.4 -3 77 -22.5 -8.6
11:20 1020 30.12 849 25.07 -19.4 -2.9 79 -22.2 -8
11:25 1020 30.12 849 25.07 -19.1 -2.4 80 -21.8 -7.2
11:30 1020 30.12 849 25.07 -18.8 -1.8 80 -21.5 -6.6
11:35 1020 30.12 849 25.07 -18.4 -1.2 81 -21 -5.8
11:40 1020 30.12 849 25.07 -18.2 -0.7 79 -21 -5.9
11:45 1020 30.12 849 25.07 -18.2 -0.7 79 -21 -5.8
11:50 1020 30.12 849 25.07 -17.9 -0.2 79 -20.6 -5.1
11:55 1020 30.12 849 25.07 -17.6 0.4 80 -20.3 -4.5
12:00 1020 30.12 849 25.07 -17.2 1 78 -20.2 -4.3
12:05 1020 30.12 849 25.07 -17.2 1.1 77 -20.2 -4.4
12:10 1020 30.12 849 25.07 -17.2 1 78 -20.2 -4.4
12:15 1020 30.12 849 25.07 -17 1.4 78 -20 -4
12:20 1020 30.12 849 25.07 -16.9 1.5 77 -20 -4
12:25 1020 30.12 849 25.07 -16.8 1.8 76 -20.1 -4.1
12:30 1020 30.12 849 25.07 -16.9 1.6 76 -20.1 -4.2
12:35 1019 30.09 849 25.07 -17 1.3 78 -20 -4.1
12:40 1019 30.09 849 25.07 -16.7 1.9 77 -19.9 -3.8
12:45 1019 30.09 849 25.07 -16.4 2.4 78 -19.5 -3.1
12:50 1019 30.09 849 25.07 -16.4 2.5 77 -19.5 -3.1
12:55 1019 30.09 849 25.07 -16.3 2.6 78 -19.3 -2.7
13:00 1019 30.09 849 25.07 -16.4 2.5 76 -19.8 -3.6
13:05 1019 30.09 849 25.07 -16.6 2.1 76 -19.9 -3.9
13:10 1019 30.09 849 25.07 -16.4 2.5 77 -19.5 -3.2
13:15 1019 30.09 849 25.07 -16 3.2 79 -18.9 -1.9
13:20 1019 30.09 849 25.07 -15.8 3.5 76 -19.1 -2.4
13:25 1019 30.09 848 25.04 -15.8 3.6 78 -18.8 -1.9
13:30 1019 30.09 848 25.04 -15.7 3.8 76 -19 -2.2
13:35 1019 30.09 848 25.04 -15.6 3.8 74 -19.3 -2.8
13:40 1019 30.09 849 25.07 -15.8 3.5 77 -19 -2.3
13:45 1019 30.09 848 25.04 -15.2 4.6 78 -18.3 -0.9
13:50 1019 30.09 848 25.04 -14.8 5.3 73 -18.6 -1.4
13:55 1019 30.09 848 25.04 -14.9 5.2 72 -18.9 -2
14:00 1019 30.09 848 25.04 -15.1 4.9 74 -18.7 -1.7
14:05 1019 30.09 848 25.04 -15.1 4.9 75 -18.5 -1.4
14:10 1019 30.09 848 25.04 -15.2 4.7 73 -19 -2.3
14:15 1019 30.09 848 25.04 -15.3 4.4 73 -19.2 -2.5
14:20 1019 30.09 848 25.04 -15.3 4.5 72 -19.2 -2.6
14:25 1019 30.09 848 25.04 -15.6 3.9 74 -19.2 -2.6
14:30 1019 30.09 848 25.04 -15.5 4.2 72 -19.4 -3
14:35 1019 30.09 848 25.04 -15.4 4.3 74 -19 -2.2
14:40 1019 30.09 848 25.04 -14.9 5.1 71 -19.2 -2.5
14:45 1019 30.09 848 25.04 -15.1 4.8 73 -18.9 -2.1
14:50 1019 30.09 848 25.04 -15 5.1 71 -19.2 -2.5
14:55 1019 30.09 848 25.04 -15.3 4.5 71 -19.4 -2.9
15:00 1019 30.09 848 25.04 -15.7 3.7 70 -20.1 -4.1
15:05 1019 30.09 848 25.04 -16.2 2.9 72 -20 -4.1
15:10 1019 30.09 848 25.04 -16.2 2.9 71 -20.3 -4.5
15:15 1019 30.09 848 25.04 -16 3.1 71 -20.2 -4.3
15:20 1019 30.09 848 25.04 -16.1 2.9 71 -20.3 -4.5
15:25 1019 30.09 848 25.04 -16.1 3 73 -20 -4
15:30 1019 30.09 848 25.04 -16.3 2.6 72 -20.2 -4.4
15:35 1019 30.09 848 25.04 -16.5 2.4 73 -20.2 -4.4
15:40 1019 30.09 848 25.04 -16.5 2.4 73 -20.2 -4.3
15:45 1019 30.09 848 25.04 -16.4 2.5 73 -20.1 -4.2
15:50 1019 30.09 848 25.04 -16.3 2.7 75 -19.8 -3.7
15:55 1019 30.09 848 25.04 -16.1 3 72 -20 -4
16:00 1019 30.09 848 25.04 -16.1 3 70 -20.3 -4.6
16:05 1019 30.09 848 25.04 -16.3 2.7 70 -20.6 -5.1
16:10 1019 30.09 848 25.04 -16.5 2.3 71 -20.5 -4.9
16:15 1019 30.09 848 25.04 -16.5 2.3 73 -20.3 -4.6
16:20 1019 30.09 848 25.04 -16.6 2.2 69 -21 -5.9
16:25 1019 30.09 848 25.04 -16.8 1.7 72 -20.7 -5.3
16:30 1019 30.09 848 25.04 -17 1.3 71 -21.1 -6
16:35 1019 30.09 848 25.04 -17.1 1.2 75 -20.6 -5.1
16:40 1019 30.09 848 25.04 -17.1 1.3 74 -20.6 -5.1
16:45 1019 30.09 848 25.04 -17 1.4 74 -20.6 -5.1
16:50 1019 30.09 848 25.04 -17 1.5 74 -20.6 -5.1
16:55 1019 30.09 848 25.04 -17 1.4 74 -20.7 -5.2
17:00 1019 30.09 848 25.04 -17.1 1.3 74 -20.7 -5.2
17:05 1019 30.09 848 25.04 -17.2 1.1 74 -20.8 -5.5
17:10 1019 30.09 848 25.04 -17.3 1 76 -20.6 -5.1
17:15 1019 30.09 848 25.04 -17.3 0.8 76 -20.7 -5.2
17:20 1019 30.09 848 25.04 -17.4 0.7 76 -20.6 -5.1
17:25 1019 30.09 848 25.04 -17.4 0.7 76 -20.7 -5.2
17:30 1019 30.09 848 25.04 -17.5 0.5 77 -20.7 -5.2
17:35 1019 30.09 848 25.04 -17.6 0.4 76 -20.8 -5.4
17:40 1019 30.09 849 25.07 -17.7 0.2 76 -21 -5.7
17:45 1019 30.09 848 25.04 -17.9 -0.2 77 -21 -5.8
17:50 1019 30.09 848 25.04 -18 -0.4 77 -21 -5.8
17:55 1019 30.09 848 25.04 -18 -0.4 77 -21.1 -6
18:00 1019 30.09 848 25.04 -18.2 -0.8 76 -21.4 -6.6
18:05 1019 30.09 848 25.04 -18.4 -1.1 78 -21.3 -6.3
18:10 1019 30.09 849 25.07 -18.3 -0.9 78 -21.2 -6.2
18:15 1019 30.09 848 25.04 -18.4 -1.1 77 -21.4 -6.6
18:20 1019 30.09 848 25.04 -18.4 -1.1 78 -21.4 -6.5
18:25 1019 30.09 848 25.04 -18.4 -1.1 79 -21.2 -6.2
18:30 1019 30.09 848 25.04 -18.3 -0.9 79 -21.1 -6
18:35 1019 30.09 848 25.04 -18.3 -0.9 78 -21.2 -6.1
18:40 1019 30.09 848 25.04 -18.4 -1.1 78 -21.4 -6.4
18:45 1019 30.09 848 25.04 -18.5 -1.3 77 -21.6 -6.9
18:50 1019 30.09 848 25.04 -18.5 -1.4 78 -21.4 -6.6
18:55 1019 30.09 848 25.04 -18.6 -1.5 79 -21.4 -6.5
19:00 1019 30.09 848 25.04 -18.6 -1.4 79 -21.3 -6.4
19:05 1019 30.09 848 25.04 -18.6 -1.5 80 -21.3 -6.4
19:10 1019 30.09 848 25.04 -18.6 -1.5 80 -21.3 -6.3
19:15 1019 30.09 849 25.07 -18.7 -1.7 80 -21.3 -6.4
19:20 1019 30.09 849 25.07 -18.6 -1.5 80 -21.2 -6.2
19:25 1019 30.09 849 25.07 -18.4 -1.2 80 -21 -5.8
19:30 1019 30.09 849 25.07 -18.4 -1.2 80 -21.1 -5.9
19:35 1019 30.09 849 25.07 -18.5 -1.3 81 -21 -5.9
19:40 1019 30.09 849 25.07 -18.6 -1.4 80 -21.2 -6.1
19:45 1019 30.09 849 25.07 -18.7 -1.6 80 -21.3 -6.4
19:50 1019 30.09 849 25.07 -18.7 -1.7 81 -21.3 -6.3
19:55 1019 30.09 849 25.07 -18.8 -1.8 81 -21.3 -6.4
20:00 1019 30.09 849 25.07 -18.9 -1.9 81 -21.3 -6.4
20:05 1019 30.09 849 25.07 -18.8 -1.8 81 -21.3 -6.3
20:10 1019 30.09 849 25.07 -18.7 -1.7 81 -21.2 -6.1
20:15 1019 30.09 849 25.07 -18.7 -1.7 81 -21.2 -6.1
20:20 1019 30.09 849 25.07 -18.7 -1.7 81 -21.3 -6.3
20:25 1019 30.09 849 25.07 -18.9 -2 81 -21.4 -6.5
20:30 1019 30.09 849 25.07 -18.9 -2.1 81 -21.4 -6.5
20:35 1019 30.09 849 25.07 -19 -2.2 81 -21.5 -6.7
20:40 1020 30.12 849 25.07 -19.1 -2.3 80 -21.7 -7
20:45 1019 30.09 849 25.07 -19.3 -2.7 80 -21.9 -7.4
20:50 1019 30.09 849 25.07 -19.5 -3.1 80 -22.1 -7.8
20:55 1019 30.09 849 25.07 -19.6 -3.2 81 -22 -7.6
21:00 1019 30.09 849 25.07 -19.5 -3 81 -22 -7.6
21:05 1019 30.09 849 25.07 -19.5 -3.2 81 -22.1 -7.7
21:10 1019 30.09 849 25.07 -19.6 -3.3 80 -22.2 -8
21:15 1020 30.12 849 25.07 -19.7 -3.5 80 -22.3 -8.1
21:20 1020 30.12 849 25.07 -19.8 -3.6 81 -22.2 -8
21:25 1020 30.12 849 25.07 -19.7 -3.4 81 -22.2 -7.9
21:30 1020 30.12 849 25.07 -19.7 -3.4 81 -22.1 -7.8
21:35 1020 30.12 849 25.07 -19.7 -3.4 81 -22.2 -8
21:40 1020 30.12 849 25.07 -19.8 -3.6 81 -22.3 -8.1
21:45 1020 30.12 849 25.07 -19.8 -3.7 80 -22.4 -8.3
21:50 1020 30.12 849 25.07 -20 -3.9 80 -22.5 -8.6
21:55 1020 30.12 849 25.07 -20.1 -4.2 80 -22.7 -8.9
22:00 1020 30.12 849 25.07 -20.3 -4.5 80 -22.8 -9.1
22:05 1020 30.12 849 25.07 -20.4 -4.7 80 -22.9 -9.3
22:10 1020 30.12 849 25.07 -20.5 -4.9 81 -23 -9.4
22:15 1020 30.12 849 25.07 -20.6 -5.1 81 -23.1 -9.5
22:20 1020 30.12 849 25.07 -20.6 -5.1 81 -23.1 -9.6
22:25 1020 30.12 849 25.07 -20.6 -5.2 82 -23 -9.4
22:30 1020 30.12 849 25.07 -20.5 -5 81 -22.9 -9.3
22:35 1020 30.12 849 25.07 -20.6 -5 82 -22.9 -9.3
22:40 1020 30.12 849 25.07 -20.6 -5 82 -22.9 -9.2
22:45 1020 30.12 849 25.07 -20.6 -5 80 -23.2 -9.8
22:50 1020 30.12 849 25.07 -20.6 -5.1 81 -23 -9.4
22:55 1020 30.12 849 25.07 -20.6 -5 82 -22.9 -9.3
23:00 1020 30.12 849 25.07 -20.6 -5.1 81 -23.1 -9.6
23:05 1020 30.12 849 25.07 -20.6 -5.2 80 -23.3 -9.9
23:10 1020 30.12 849 25.07 -20.8 -5.4 78 -23.6 -10.5
23:15 1020 30.12 849 25.07 -21.1 -6 77 -24.1 -11.4
23:20 1020 30.12 849 25.07 -21.5 -6.7 77 -24.6 -12.2
23:25 1020 30.12 849 25.07 -21.8 -7.2 78 -24.6 -12.4
23:30 1020 30.12 849 25.07 -21.9 -7.4 78 -24.7 -12.5
23:35 1020 30.12 849 25.07 -22 -7.7 78 -24.9 -12.8
23:40 1020 30.12 849 25.07 -22.1 -7.8 78 -24.9 -12.9
23:45 1020 30.12 849 25.07 -22.2 -7.9 78 -25 -13.1
23:50 1020 30.12 849 25.07 -22.3 -8.2 78 -25.2 -13.3
23:55 1020 30.12 849 25.07 -22.5 -8.4 77 -25.4 -13.7
24:00 1020 30.12 849 25.07 -22.5 -8.5 78 -25.4 -13.8